sensor_id;sensor_type;location;lat;lon;timestamp;pressure;altitude;pressure_sealevel;temperature;humidity
27334;BME280;14817;57.104;-2.094;2024-01-25T00:00:10;100423.81;;;3.73;100.00
27334;BME280;14817;57.104;-2.094;2024-01-25T00:02:37;100433.56;;;3.73;100.00
27334;BME280;14817;57.104;-2.094;2024-01-25T00:05:04;100436.84;;;3.76;100.00
27334;BME280;14817;57.104;-2.094;2024-01-25T00:07:31;100449.75;;;3.81;100.00
27334;BME280;14817;57.104;-2.094;2024-01-25T00:09:58;100440.97;;;3.80;100.00
27334;BME280;14817;57.104;-2.094;2024-01-25T00:12:25;100440.72;;;3.83;100.00
27334;BME280;14817;57.104;-2.094;2024-01-25T00:14:53;100447.00;;;3.82;100.00
27334;BME280;14817;57.104;-2.094;2024-01-25T00:17:19;100442.53;;;3.83;100.00
27334;BME280;14817;57.104;-2.094;2024-01-25T00:19:46;100435.53;;;3.82;100.00
27334;BME280;14817;57.104;-2.094;2024-01-25T00:22:13;100433.06;;;3.67;100.00
27334;BME280;14817;57.104;-2.094;2024-01-25T00:24:40;100433.91;;;3.68;100.00
27334;BME280;14817;57.104;-2.094;2024-01-25T00:27:07;100434.75;;;3.68;100.00
27334;BME280;14817;57.104;-2.094;2024-01-25T00:29:34;100435.06;;;3.64;100.00
27334;BME280;14817;57.104;-2.094;2024-01-25T00:32:00;100441.75;;;3.70;100.00
27334;BME280;14817;57.104;-2.094;2024-01-25T00:34:27;100432.81;;;3.71;100.00
27334;BME280;14817;57.104;-2.094;2024-01-25T00:36:54;100436.44;;;3.70;100.00
27334;BME280;14817;57.104;-2.094;2024-01-25T00:39:21;100427.81;;;3.79;100.00
27334;BME280;14817;57.104;-2.094;2024-01-25T00:41:50;100414.81;;;3.76;100.00
27334;BME280;14817;57.104;-2.094;2024-01-25T00:44:17;100419.69;;;3.69;100.00
27334;BME280;14817;57.104;-2.094;2024-01-25T00:46:44;100436.16;;;3.61;100.00
27334;BME280;14817;57.104;-2.094;2024-01-25T00:49:13;100443.69;;;3.55;100.00
27334;BME280;14817;57.104;-2.094;2024-01-25T00:51:41;100443.25;;;3.61;100.00
27334;BME280;14817;57.104;-2.094;2024-01-25T00:54:12;100445.66;;;3.64;100.00
27334;BME280;14817;57.104;-2.094;2024-01-25T00:56:39;100442.91;;;3.65;100.00
27334;BME280;14817;57.104;-2.094;2024-01-25T00:59:05;100448.09;;;3.67;100.00
27334;BME280;14817;57.104;-2.094;2024-01-25T01:01:32;100439.63;;;3.62;100.00
27334;BME280;14817;57.104;-2.094;2024-01-25T01:03:59;100446.09;;;3.58;100.00
27334;BME280;14817;57.104;-2.094;2024-01-25T01:06:27;100455.13;;;3.55;100.00
27334;BME280;14817;57.104;-2.094;2024-01-25T01:08:54;100452.38;;;3.57;100.00
27334;BME280;14817;57.104;-2.094;2024-01-25T01:11:20;100461.88;;;3.59;100.00
27334;BME280;14817;57.104;-2.094;2024-01-25T01:13:47;100451.94;;;3.63;100.00
27334;BME280;14817;57.104;-2.094;2024-01-25T01:16:14;100433.25;;;3.64;100.00
27334;BME280;14817;57.104;-2.094;2024-01-25T01:18:40;100426.06;;;3.66;100.00
27334;BME280;14817;57.104;-2.094;2024-01-25T01:21:08;100411.03;;;3.67;100.00
27334;BME280;14817;57.104;-2.094;2024-01-25T01:23:34;100401.16;;;3.69;100.00
27334;BME280;14817;57.104;-2.094;2024-01-25T01:26:02;100420.31;;;3.73;100.00
27334;BME280;14817;57.104;-2.094;2024-01-25T01:28:29;100418.94;;;3.80;100.00
27334;BME280;14817;57.104;-2.094;2024-01-25T01:30:56;100413.13;;;3.75;100.00
27334;BME280;14817;57.104;-2.094;2024-01-25T01:33:23;100414.13;;;3.85;100.00
27334;BME280;14817;57.104;-2.094;2024-01-25T01:35:50;100405.84;;;3.89;100.00
27334;BME280;14817;57.104;-2.094;2024-01-25T01:38:17;100400.09;;;3.96;100.00
27334;BME280;14817;57.104;-2.094;2024-01-25T01:40:44;100417.69;;;3.97;100.00
27334;BME280;14817;57.104;-2.094;2024-01-25T01:43:21;100419.59;;;3.95;100.00
27334;BME280;14817;57.104;-2.094;2024-01-25T01:45:49;100408.53;;;4.01;100.00
27334;BME280;14817;57.104;-2.094;2024-01-25T01:48:16;100406.75;;;4.01;100.00
27334;BME280;14817;57.104;-2.094;2024-01-25T01:50:44;100397.84;;;4.02;100.00
27334;BME280;14817;57.104;-2.094;2024-01-25T01:53:11;100398.19;;;3.98;100.00
27334;BME280;14817;57.104;-2.094;2024-01-25T01:55:39;100409.47;;;3.88;100.00
27334;BME280;14817;57.104;-2.094;2024-01-25T01:58:06;100410.06;;;3.92;100.00
27334;BME280;14817;57.104;-2.094;2024-01-25T02:00:34;100409.69;;;3.85;100.00
27334;BME280;14817;57.104;-2.094;2024-01-25T02:03:00;100431.50;;;3.89;100.00
27334;BME280;14817;57.104;-2.094;2024-01-25T02:05:28;100431.50;;;3.89;100.00
27334;BME280;14817;57.104;-2.094;2024-01-25T02:07:55;100447.75;;;3.84;100.00
27334;BME280;14817;57.104;-2.094;2024-01-25T02:10:22;100439.13;;;3.94;100.00
27334;BME280;14817;57.104;-2.094;2024-01-25T02:12:48;100423.59;;;4.00;100.00
27334;BME280;14817;57.104;-2.094;2024-01-25T02:15:15;100428.91;;;4.00;100.00
27334;BME280;14817;57.104;-2.094;2024-01-25T02:17:42;100429.00;;;3.99;100.00
27334;BME280;14817;57.104;-2.094;2024-01-25T02:20:09;100437.81;;;3.99;100.00
27334;BME280;14817;57.104;-2.094;2024-01-25T02:22:36;100423.41;;;4.03;100.00
27334;BME280;14817;57.104;-2.094;2024-01-25T02:25:03;100425.41;;;4.00;100.00
27334;BME280;14817;57.104;-2.094;2024-01-25T02:27:30;100423.72;;;3.99;100.00
27334;BME280;14817;57.104;-2.094;2024-01-25T02:29:57;100411.16;;;3.89;100.00
27334;BME280;14817;57.104;-2.094;2024-01-25T02:32:24;100427.69;;;3.93;100.00
27334;BME280;14817;57.104;-2.094;2024-01-25T02:34:50;100436.91;;;3.87;100.00
27334;BME280;14817;57.104;-2.094;2024-01-25T02:37:17;100433.06;;;3.92;100.00
27334;BME280;14817;57.104;-2.094;2024-01-25T02:39:44;100440.53;;;3.86;100.00
27334;BME280;14817;57.104;-2.094;2024-01-25T02:42:11;100452.59;;;3.91;100.00
27334;BME280;14817;57.104;-2.094;2024-01-25T02:44:38;100467.53;;;3.92;100.00
27334;BME280;14817;57.104;-2.094;2024-01-25T02:47:05;100474.00;;;3.87;100.00
27334;BME280;14817;57.104;-2.094;2024-01-25T02:49:32;100487.69;;;3.81;100.00
27334;BME280;14817;57.104;-2.094;2024-01-25T02:51:59;100491.06;;;3.83;100.00
27334;BME280;14817;57.104;-2.094;2024-01-25T02:54:26;100486.44;;;3.74;100.00
27334;BME280;14817;57.104;-2.094;2024-01-25T02:56:53;100491.41;;;3.79;100.00
27334;BME280;14817;57.104;-2.094;2024-01-25T02:59:19;100491.72;;;3.74;100.00
27334;BME280;14817;57.104;-2.094;2024-01-25T03:01:46;100516.63;;;3.72;100.00
27334;BME280;14817;57.104;-2.094;2024-01-25T03:04:13;100519.06;;;3.75;100.00
27334;BME280;14817;57.104;-2.094;2024-01-25T03:06:40;100527.84;;;3.75;100.00
27334;BME280;14817;57.104;-2.094;2024-01-25T03:09:07;100546.72;;;3.71;100.00
27334;BME280;14817;57.104;-2.094;2024-01-25T03:11:34;100549.16;;;3.61;100.00
27334;BME280;14817;57.104;-2.094;2024-01-25T03:14:01;100566.00;;;3.60;100.00
27334;BME280;14817;57.104;-2.094;2024-01-25T03:16:28;100584.44;;;3.61;100.00
27334;BME280;14817;57.104;-2.094;2024-01-25T03:18:54;100592.47;;;3.60;100.00
27334;BME280;14817;57.104;-2.094;2024-01-25T03:21:21;100596.19;;;3.57;100.00
27334;BME280;14817;57.104;-2.094;2024-01-25T03:23:48;100585.19;;;3.63;100.00
27334;BME280;14817;57.104;-2.094;2024-01-25T03:26:15;100601.47;;;3.57;100.00
27334;BME280;14817;57.104;-2.094;2024-01-25T03:28:42;100613.25;;;3.53;100.00
27334;BME280;14817;57.104;-2.094;2024-01-25T03:31:09;100621.19;;;3.53;100.00
27334;BME280;14817;57.104;-2.094;2024-01-25T03:33:36;100638.97;;;3.51;100.00
27334;BME280;14817;57.104;-2.094;2024-01-25T03:36:03;100652.53;;;3.46;100.00
27334;BME280;14817;57.104;-2.094;2024-01-25T03:38:30;100653.59;;;3.57;100.00
27334;BME280;14817;57.104;-2.094;2024-01-25T03:40:57;100651.06;;;3.55;100.00
27334;BME280;14817;57.104;-2.094;2024-01-25T03:43:25;100643.94;;;3.56;100.00
27334;BME280;14817;57.104;-2.094;2024-01-25T03:45:59;100632.19;;;3.60;100.00
27334;BME280;14817;57.104;-2.094;2024-01-25T03:48:26;100629.88;;;3.55;100.00
27334;BME280;14817;57.104;-2.094;2024-01-25T03:50:53;100640.38;;;3.57;100.00
27334;BME280;14817;57.104;-2.094;2024-01-25T03:53:23;100645.34;;;3.61;100.00
27334;BME280;14817;57.104;-2.094;2024-01-25T03:55:50;100655.09;;;3.61;100.00
27334;BME280;14817;57.104;-2.094;2024-01-25T03:58:17;100649.88;;;3.59;100.00
27334;BME280;14817;57.104;-2.094;2024-01-25T04:00:44;100649.25;;;3.56;100.00
27334;BME280;14817;57.104;-2.094;2024-01-25T04:03:11;100641.31;;;3.56;100.00
27334;BME280;14817;57.104;-2.094;2024-01-25T04:05:38;100638.72;;;3.41;100.00
27334;BME280;14817;57.104;-2.094;2024-01-25T04:08:08;100627.94;;;3.32;100.00
27334;BME280;14817;57.104;-2.094;2024-01-25T04:10:35;100626.44;;;3.27;100.00
27334;BME280;14817;57.104;-2.094;2024-01-25T04:13:02;100629.19;;;3.26;100.00
27334;BME280;14817;57.104;-2.094;2024-01-25T04:15:31;100623.69;;;3.29;100.00
27334;BME280;14817;57.104;-2.094;2024-01-25T04:17:58;100637.47;;;3.34;100.00
27334;BME280;14817;57.104;-2.094;2024-01-25T04:20:25;100636.63;;;3.34;100.00
27334;BME280;14817;57.104;-2.094;2024-01-25T04:22:52;100641.25;;;3.30;100.00
27334;BME280;14817;57.104;-2.094;2024-01-25T04:25:19;100651.25;;;3.39;100.00
27334;BME280;14817;57.104;-2.094;2024-01-25T04:27:46;100636.81;;;3.43;100.00
27334;BME280;14817;57.104;-2.094;2024-01-25T04:30:13;100640.88;;;3.49;100.00
27334;BME280;14817;57.104;-2.094;2024-01-25T04:32:40;100629.63;;;3.45;100.00
27334;BME280;14817;57.104;-2.094;2024-01-25T04:35:08;100624.03;;;3.37;100.00
27334;BME280;14817;57.104;-2.094;2024-01-25T04:37:34;100605.50;;;3.37;100.00
27334;BME280;14817;57.104;-2.094;2024-01-25T04:40:01;100605.69;;;3.34;100.00
27334;BME280;14817;57.104;-2.094;2024-01-25T04:42:29;100605.03;;;3.31;100.00
27334;BME280;14817;57.104;-2.094;2024-01-25T04:44:56;100613.13;;;3.29;100.00
27334;BME280;14817;57.104;-2.094;2024-01-25T04:47:23;100605.25;;;3.27;100.00
27334;BME280;14817;57.104;-2.094;2024-01-25T04:49:50;100598.38;;;3.25;100.00
27334;BME280;14817;57.104;-2.094;2024-01-25T04:52:17;100609.91;;;3.24;100.00
27334;BME280;14817;57.104;-2.094;2024-01-25T04:54:44;100607.88;;;3.15;100.00
27334;BME280;14817;57.104;-2.094;2024-01-25T04:57:11;100615.00;;;3.14;100.00
27334;BME280;14817;57.104;-2.094;2024-01-25T04:59:37;100618.16;;;3.19;100.00
27334;BME280;14817;57.104;-2.094;2024-01-25T05:02:04;100628.56;;;3.22;100.00
27334;BME280;14817;57.104;-2.094;2024-01-25T05:04:31;100629.41;;;3.23;100.00
27334;BME280;14817;57.104;-2.094;2024-01-25T05:06:58;100624.19;;;3.21;100.00
27334;BME280;14817;57.104;-2.094;2024-01-25T05:09:25;100616.56;;;3.17;100.00
27334;BME280;14817;57.104;-2.094;2024-01-25T05:11:51;100613.94;;;3.17;100.00
27334;BME280;14817;57.104;-2.094;2024-01-25T05:14:18;100610.53;;;3.15;100.00
27334;BME280;14817;57.104;-2.094;2024-01-25T05:16:45;100605.66;;;3.09;100.00
27334;BME280;14817;57.104;-2.094;2024-01-25T05:19:12;100599.44;;;3.10;100.00
27334;BME280;14817;57.104;-2.094;2024-01-25T05:21:38;100611.16;;;3.05;100.00
27334;BME280;14817;57.104;-2.094;2024-01-25T05:24:05;100627.66;;;3.09;100.00
27334;BME280;14817;57.104;-2.094;2024-01-25T05:26:34;100645.91;;;3.14;100.00
27334;BME280;14817;57.104;-2.094;2024-01-25T05:29:01;100640.47;;;3.15;100.00
27334;BME280;14817;57.104;-2.094;2024-01-25T05:31:27;100675.56;;;3.32;100.00
27334;BME280;14817;57.104;-2.094;2024-01-25T05:33:54;100688.94;;;3.43;100.00
27334;BME280;14817;57.104;-2.094;2024-01-25T05:36:21;100706.75;;;3.54;100.00
27334;BME280;14817;57.104;-2.094;2024-01-25T05:38:48;100725.63;;;3.62;100.00
27334;BME280;14817;57.104;-2.094;2024-01-25T05:41:15;100735.06;;;3.66;100.00
27334;BME280;14817;57.104;-2.094;2024-01-25T05:43:42;100746.00;;;3.74;100.00
27334;BME280;14817;57.104;-2.094;2024-01-25T05:46:09;100744.28;;;3.73;100.00
27334;BME280;14817;57.104;-2.094;2024-01-25T05:48:36;100758.50;;;3.72;100.00
27334;BME280;14817;57.104;-2.094;2024-01-25T05:51:03;100773.53;;;3.72;100.00
27334;BME280;14817;57.104;-2.094;2024-01-25T05:53:30;100773.97;;;3.78;100.00
27334;BME280;14817;57.104;-2.094;2024-01-25T05:55:57;100783.09;;;3.74;100.00
27334;BME280;14817;57.104;-2.094;2024-01-25T05:58:24;100777.03;;;3.72;100.00
27334;BME280;14817;57.104;-2.094;2024-01-25T06:00:51;100780.63;;;3.71;100.00
27334;BME280;14817;57.104;-2.094;2024-01-25T06:03:18;100791.09;;;3.60;100.00
27334;BME280;14817;57.104;-2.094;2024-01-25T06:05:44;100796.38;;;3.60;100.00
27334;BME280;14817;57.104;-2.094;2024-01-25T06:08:11;100797.44;;;3.57;100.00
27334;BME280;14817;57.104;-2.094;2024-01-25T06:10:38;100789.94;;;3.64;100.00
27334;BME280;14817;57.104;-2.094;2024-01-25T06:13:06;100796.38;;;3.60;100.00
27334;BME280;14817;57.104;-2.094;2024-01-25T06:15:33;100794.34;;;3.51;100.00
27334;BME280;14817;57.104;-2.094;2024-01-25T06:17:59;100794.69;;;3.59;100.00
27334;BME280;14817;57.104;-2.094;2024-01-25T06:20:26;100798.84;;;3.63;100.00
27334;BME280;14817;57.104;-2.094;2024-01-25T06:22:53;100799.78;;;3.62;100.00
27334;BME280;14817;57.104;-2.094;2024-01-25T06:25:20;100812.19;;;3.61;100.00
27334;BME280;14817;57.104;-2.094;2024-01-25T06:27:47;100825.81;;;3.55;100.00
27334;BME280;14817;57.104;-2.094;2024-01-25T06:30:15;100812.47;;;3.57;100.00
27334;BME280;14817;57.104;-2.094;2024-01-25T06:32:41;100815.13;;;3.57;100.00
27334;BME280;14817;57.104;-2.094;2024-01-25T06:35:08;100809.94;;;3.55;100.00
27334;BME280;14817;57.104;-2.094;2024-01-25T06:37:36;100810.88;;;3.54;100.00
27334;BME280;14817;57.104;-2.094;2024-01-25T06:40:03;100824.97;;;3.55;100.00
27334;BME280;14817;57.104;-2.094;2024-01-25T06:42:31;100823.25;;;3.54;100.00
27334;BME280;14817;57.104;-2.094;2024-01-25T06:44:58;100821.47;;;3.54;100.00
27334;BME280;14817;57.104;-2.094;2024-01-25T06:47:24;100806.03;;;3.61;100.00
27334;BME280;14817;57.104;-2.094;2024-01-25T06:49:51;100812.19;;;3.61;100.00
27334;BME280;14817;57.104;-2.094;2024-01-25T06:52:18;100808.59;;;3.75;100.00
27334;BME280;14817;57.104;-2.094;2024-01-25T06:54:46;100813.72;;;3.78;100.00
27334;BME280;14817;57.104;-2.094;2024-01-25T06:57:12;100814.47;;;3.80;100.00
27334;BME280;14817;57.104;-2.094;2024-01-25T06:59:40;100816.84;;;3.71;100.00
27334;BME280;14817;57.104;-2.094;2024-01-25T07:02:08;100816.00;;;3.70;100.00
27334;BME280;14817;57.104;-2.094;2024-01-25T07:04:35;100804.63;;;3.82;100.00
27334;BME280;14817;57.104;-2.094;2024-01-25T07:07:05;100789.16;;;3.89;100.00
27334;BME280;14817;57.104;-2.094;2024-01-25T07:09:32;100780.69;;;3.97;100.00
27334;BME280;14817;57.104;-2.094;2024-01-25T07:11:58;100774.03;;;4.04;100.00
27334;BME280;14817;57.104;-2.094;2024-01-25T07:14:25;100771.72;;;4.12;100.00
27334;BME280;14817;57.104;-2.094;2024-01-25T07:16:52;100772.66;;;4.11;100.00
27334;BME280;14817;57.104;-2.094;2024-01-25T07:19:19;100764.19;;;4.19;100.00
27334;BME280;14817;57.104;-2.094;2024-01-25T07:21:46;100770.41;;;4.18;100.00
27334;BME280;14817;57.104;-2.094;2024-01-25T07:24:12;100783.16;;;4.25;100.00
27334;BME280;14817;57.104;-2.094;2024-01-25T07:26:39;100783.69;;;4.30;100.00
27334;BME280;14817;57.104;-2.094;2024-01-25T07:29:06;100779.53;;;4.26;100.00
27334;BME280;14817;57.104;-2.094;2024-01-25T07:31:33;100783.06;;;4.27;100.00
27334;BME280;14817;57.104;-2.094;2024-01-25T07:33:59;100785.16;;;4.22;100.00
27334;BME280;14817;57.104;-2.094;2024-01-25T07:36:26;100792.28;;;4.21;100.00
27334;BME280;14817;57.104;-2.094;2024-01-25T07:38:53;100783.56;;;4.19;100.00
27334;BME280;14817;57.104;-2.094;2024-01-25T07:41:20;100782.84;;;4.17;100.00
27334;BME280;14817;57.104;-2.094;2024-01-25T07:43:46;100785.06;;;4.11;100.00
27334;BME280;14817;57.104;-2.094;2024-01-25T07:46:13;100783.03;;;4.01;100.00
27334;BME280;14817;57.104;-2.094;2024-01-25T07:48:42;100774.22;;;4.01;100.00
27334;BME280;14817;57.104;-2.094;2024-01-25T07:51:11;100766.06;;;4.04;100.00
27334;BME280;14817;57.104;-2.094;2024-01-25T07:53:39;100766.25;;;4.01;100.00
27334;BME280;14817;57.104;-2.094;2024-01-25T07:56:09;100762.47;;;4.05;100.00
27334;BME280;14817;57.104;-2.094;2024-01-25T07:58:37;100745.41;;;4.09;100.00
27334;BME280;14817;57.104;-2.094;2024-01-25T08:01:04;100767.56;;;4.08;100.00
27334;BME280;14817;57.104;-2.094;2024-01-25T08:03:34;100763.19;;;4.07;100.00
27334;BME280;14817;57.104;-2.094;2024-01-25T08:06:01;100761.41;;;4.07;100.00
27334;BME280;14817;57.104;-2.094;2024-01-25T08:08:29;100761.53;;;4.06;100.00
27334;BME280;14817;57.104;-2.094;2024-01-25T08:10:56;100761.31;;;4.09;100.00
27334;BME280;14817;57.104;-2.094;2024-01-25T08:13:23;100760.13;;;4.13;100.00
27334;BME280;14817;57.104;-2.094;2024-01-25T08:15:50;100750.50;;;4.12;100.00
27334;BME280;14817;57.104;-2.094;2024-01-25T08:18:17;100749.22;;;4.05;100.00
27334;BME280;14817;57.104;-2.094;2024-01-25T08:20:45;100751.53;;;4.09;100.00
27334;BME280;14817;57.104;-2.094;2024-01-25T08:23:13;100739.25;;;4.21;100.00
27334;BME280;14817;57.104;-2.094;2024-01-25T08:25:41;100717.19;;;4.34;100.00
27334;BME280;14817;57.104;-2.094;2024-01-25T08:28:08;100711.91;;;4.34;100.00
27334;BME280;14817;57.104;-2.094;2024-01-25T08:30:35;100709.56;;;4.42;100.00
27334;BME280;14817;57.104;-2.094;2024-01-25T08:33:02;100719.94;;;4.45;100.00
27334;BME280;14817;57.104;-2.094;2024-01-25T08:35:30;100721.31;;;4.50;100.00
27334;BME280;14817;57.104;-2.094;2024-01-25T08:38:00;100701.28;;;4.46;100.00
27334;BME280;14817;57.104;-2.094;2024-01-25T08:40:26;100690.84;;;4.56;100.00
27334;BME280;14817;57.104;-2.094;2024-01-25T08:42:56;100688.94;;;4.58;100.00
27334;BME280;14817;57.104;-2.094;2024-01-25T08:45:23;100671.34;;;4.57;100.00
27334;BME280;14817;57.104;-2.094;2024-01-25T08:47:49;100666.88;;;4.58;100.00
27334;BME280;14817;57.104;-2.094;2024-01-25T08:50:18;100655.31;;;4.59;100.00
27334;BME280;14817;57.104;-2.094;2024-01-25T08:52:45;100652.88;;;4.56;100.00
27334;BME280;14817;57.104;-2.094;2024-01-25T08:55:12;100638.66;;;4.57;100.00
27334;BME280;14817;57.104;-2.094;2024-01-25T08:57:39;100628.66;;;4.60;100.00
27334;BME280;14817;57.104;-2.094;2024-01-25T09:00:07;100633.53;;;4.66;100.00
27334;BME280;14817;57.104;-2.094;2024-01-25T09:02:38;100633.53;;;4.66;100.00
27334;BME280;14817;57.104;-2.094;2024-01-25T09:05:05;100636.91;;;4.68;100.00
27334;BME280;14817;57.104;-2.094;2024-01-25T09:07:32;100638.41;;;4.73;100.00
27334;BME280;14817;57.104;-2.094;2024-01-25T09:09:59;100650.69;;;4.74;100.00
27334;BME280;14817;57.104;-2.094;2024-01-25T09:12:26;100653.13;;;4.77;100.00
27334;BME280;14817;57.104;-2.094;2024-01-25T09:14:52;100667.22;;;4.77;100.00
27334;BME280;14817;57.104;-2.094;2024-01-25T09:17:19;100669.16;;;4.75;100.00
27334;BME280;14817;57.104;-2.094;2024-01-25T09:19:49;100678.25;;;4.84;100.00
27334;BME280;14817;57.104;-2.094;2024-01-25T09:22:19;100667.63;;;4.84;100.00
27334;BME280;14817;57.104;-2.094;2024-01-25T09:24:46;100666.44;;;4.88;100.00
27334;BME280;14817;57.104;-2.094;2024-01-25T09:27:13;100651.38;;;4.88;100.00
27334;BME280;14817;57.104;-2.094;2024-01-25T09:29:41;100647.66;;;4.91;100.00
27334;BME280;14817;57.104;-2.094;2024-01-25T09:32:09;100636.38;;;5.00;100.00
27334;BME280;14817;57.104;-2.094;2024-01-25T09:34:36;100642.84;;;4.96;100.00
27334;BME280;14817;57.104;-2.094;2024-01-25T09:37:06;100632.13;;;4.98;100.00
27334;BME280;14817;57.104;-2.094;2024-01-25T09:39:33;100615.13;;;5.00;100.00
27334;BME280;14817;57.104;-2.094;2024-01-25T09:42:02;100612.47;;;5.00;100.00
27334;BME280;14817;57.104;-2.094;2024-01-25T09:44:29;100602.03;;;5.10;100.00
27334;BME280;14817;57.104;-2.094;2024-01-25T09:46:57;100588.50;;;5.13;100.00
27334;BME280;14817;57.104;-2.094;2024-01-25T09:49:23;100579.03;;;5.33;100.00
27334;BME280;14817;57.104;-2.094;2024-01-25T09:51:51;100563.25;;;5.43;100.00
27334;BME280;14817;57.104;-2.094;2024-01-25T09:54:19;100569.41;;;5.43;100.00
27334;BME280;14817;57.104;-2.094;2024-01-25T09:56:46;100561.44;;;5.43;100.00
27334;BME280;14817;57.104;-2.094;2024-01-25T09:59:17;100564.81;;;5.45;100.00
27334;BME280;14817;57.104;-2.094;2024-01-25T10:01:44;100561.94;;;5.60;100.00
27334;BME280;14817;57.104;-2.094;2024-01-25T10:04:11;100559.03;;;5.63;100.00
27334;BME280;14817;57.104;-2.094;2024-01-25T10:06:38;100545.38;;;5.67;100.00
27334;BME280;14817;57.104;-2.094;2024-01-25T10:09:05;100540.06;;;5.67;100.00
27334;BME280;14817;57.104;-2.094;2024-01-25T10:11:35;100542.13;;;5.75;100.00
27334;BME280;14817;57.104;-2.094;2024-01-25T10:14:10;100536.56;;;5.78;100.00
27334;BME280;14817;57.104;-2.094;2024-01-25T10:16:37;100528.38;;;5.81;100.00
27334;BME280;14817;57.104;-2.094;2024-01-25T10:19:06;100515.53;;;5.86;100.00
27334;BME280;14817;57.104;-2.094;2024-01-25T10:21:35;100511.44;;;5.93;100.00
27334;BME280;14817;57.104;-2.094;2024-01-25T10:24:05;100513.66;;;6.00;100.00
27334;BME280;14817;57.104;-2.094;2024-01-25T10:26:34;100517.63;;;6.17;100.00
27334;BME280;14817;57.104;-2.094;2024-01-25T10:29:01;100509.25;;;6.21;100.00
27334;BME280;14817;57.104;-2.094;2024-01-25T10:31:29;100492.94;;;6.26;100.00
27334;BME280;14817;57.104;-2.094;2024-01-25T10:33:58;100487.69;;;6.36;100.00
27334;BME280;14817;57.104;-2.094;2024-01-25T10:36:26;100483.06;;;6.49;100.00
27334;BME280;14817;57.104;-2.094;2024-01-25T10:38:53;100468.59;;;6.63;100.00
27334;BME280;14817;57.104;-2.094;2024-01-25T10:41:20;100466.06;;;6.61;100.00
27334;BME280;14817;57.104;-2.094;2024-01-25T10:43:49;100470.03;;;6.67;100.00
27334;BME280;14817;57.104;-2.094;2024-01-25T10:46:15;100459.72;;;6.73;100.00
27334;BME280;14817;57.104;-2.094;2024-01-25T10:48:42;100456.25;;;6.83;100.00
27334;BME280;14817;57.104;-2.094;2024-01-25T10:51:09;100452.03;;;6.80;100.00
27334;BME280;14817;57.104;-2.094;2024-01-25T10:53:39;100428.91;;;7.02;100.00
27334;BME280;14817;57.104;-2.094;2024-01-25T10:56:06;100418.56;;;6.78;100.00
27334;BME280;14817;57.104;-2.094;2024-01-25T10:58:33;100397.25;;;6.78;100.00
27334;BME280;14817;57.104;-2.094;2024-01-25T11:01:08;100391.09;;;6.77;100.00
27334;BME280;14817;57.104;-2.094;2024-01-25T11:03:42;100403.75;;;6.85;100.00
27334;BME280;14817;57.104;-2.094;2024-01-25T11:06:09;100398.09;;;6.78;100.00
27334;BME280;14817;57.104;-2.094;2024-01-25T11:08:37;100378.22;;;6.82;100.00
27334;BME280;14817;57.104;-2.094;2024-01-25T11:11:05;100361.00;;;6.77;100.00
27334;BME280;14817;57.104;-2.094;2024-01-25T11:13:34;100338.91;;;6.65;100.00
27334;BME280;14817;57.104;-2.094;2024-01-25T11:16:14;100344.00;;;6.68;100.00
27334;BME280;14817;57.104;-2.094;2024-01-25T11:18:48;100358.53;;;6.64;100.00
27334;BME280;14817;57.104;-2.094;2024-01-25T11:21:25;100366.88;;;6.59;100.00
27334;BME280;14817;57.104;-2.094;2024-01-25T11:23:58;100377.28;;;6.62;100.00
27334;BME280;14817;57.104;-2.094;2024-01-25T11:26:25;100390.59;;;6.62;100.00
27334;BME280;14817;57.104;-2.094;2024-01-25T11:28:52;100388.25;;;6.69;100.00
27334;BME280;14817;57.104;-2.094;2024-01-25T11:31:19;100366.66;;;6.62;100.00
27334;BME280;14817;57.104;-2.094;2024-01-25T11:33:45;100361.03;;;6.65;100.00
27334;BME280;14817;57.104;-2.094;2024-01-25T11:36:12;100351.28;;;6.66;100.00
27334;BME280;14817;57.104;-2.094;2024-01-25T11:38:39;100335.44;;;6.64;100.00
27334;BME280;14817;57.104;-2.094;2024-01-25T11:41:06;100331.78;;;6.65;100.00
27334;BME280;14817;57.104;-2.094;2024-01-25T11:43:33;100323.25;;;6.62;100.00
27334;BME280;14817;57.104;-2.094;2024-01-25T11:46:01;100330.81;;;6.66;100.00
27334;BME280;14817;57.104;-2.094;2024-01-25T11:48:28;100317.09;;;6.71;100.00
27334;BME280;14817;57.104;-2.094;2024-01-25T11:50:56;100306.78;;;6.78;100.00
27334;BME280;14817;57.104;-2.094;2024-01-25T11:53:24;100296.94;;;6.68;100.00
27334;BME280;14817;57.104;-2.094;2024-01-25T11:55:51;100284.19;;;6.72;100.00
27334;BME280;14817;57.104;-2.094;2024-01-25T11:58:18;100282.63;;;6.69;100.00
27334;BME280;14817;57.104;-2.094;2024-01-25T12:00:45;100274.41;;;6.72;100.00
27334;BME280;14817;57.104;-2.094;2024-01-25T12:03:12;100261.41;;;6.79;100.00
27334;BME280;14817;57.104;-2.094;2024-01-25T12:05:39;100245.16;;;6.82;100.00
27334;BME280;14817;57.104;-2.094;2024-01-25T12:08:12;100224.44;;;6.86;100.00
27334;BME280;14817;57.104;-2.094;2024-01-25T12:10:39;100215.03;;;6.82;100.00
27334;BME280;14817;57.104;-2.094;2024-01-25T12:13:09;100203.41;;;6.83;100.00
27334;BME280;14817;57.104;-2.094;2024-01-25T12:15:36;100205.09;;;6.84;100.00
27334;BME280;14817;57.104;-2.094;2024-01-25T12:18:04;100187.72;;;6.80;100.00
27334;BME280;14817;57.104;-2.094;2024-01-25T12:20:31;100193.63;;;6.83;100.00
27334;BME280;14817;57.104;-2.094;2024-01-25T12:22:58;100185.47;;;6.75;100.00
27334;BME280;14817;57.104;-2.094;2024-01-25T12:25:25;100186.28;;;6.66;100.00
27334;BME280;14817;57.104;-2.094;2024-01-25T12:27:53;100179.84;;;6.68;100.00
27334;BME280;14817;57.104;-2.094;2024-01-25T12:30:20;100175.59;;;6.56;100.00
27334;BME280;14817;57.104;-2.094;2024-01-25T12:32:48;100170.28;;;6.56;100.00
27334;BME280;14817;57.104;-2.094;2024-01-25T12:35:14;100177.56;;;6.54;100.00
27334;BME280;14817;57.104;-2.094;2024-01-25T12:37:41;100161.00;;;6.50;100.00
27334;BME280;14817;57.104;-2.094;2024-01-25T12:40:08;100154.28;;;6.46;100.00